Meteorología y climatología de Navarra
Datos de la estación - Meteo Navarra

Estación de Getadar GN

Altitud 710 m.


Datos desde el 12/09/2019 hasta el 13/09/2019 en horario solar
Los datos son PROVISIONALES

Anterior Página 1 de 1 Siguiente Descargar: Formato para Excel 2000 o superior   Formato csv   Formato para OpenOffice Calc
Fecha Temperatura Humedad relativa Radiación global Insolación Precipitación Vel. viento 10 m Vel. viento 10 m Dir. viento 10 m
ºC % W/m² s l/m² m/s km/h º
12/09/2019 0:00 12.2 71 0.0 0 0.0 4.4 15.7 357
12/09/2019 0:10 12.2 71 0.0 0 0.0 4.5 16.2 353
12/09/2019 0:20 12.1 71 0.0 0 0.0 4.4 15.7 353
12/09/2019 0:30 12.1 71 0.0 0 0.0 4.8 17.4 358
12/09/2019 0:40 12.0 71 0.0 0 0.0 4.6 16.4 0
12/09/2019 0:50 11.9 71 0.0 0 0.0 4.4 15.9 359
12/09/2019 1:00 12.0 71 0.0 0 0.0 4.1 14.6 354
12/09/2019 1:10 11.9 71 0.0 0 0.0 3.9 14.0 353
12/09/2019 1:20 11.9 70 0.0 0 0.0 3.0 10.9 340
12/09/2019 1:30 11.8 70 0.0 0 0.0 1.1 4.0 293
12/09/2019 1:40 11.8 71 0.0 0 0.0 1.7 5.9 336
12/09/2019 1:50 11.7 72 0.0 0 0.0 2.7 9.9 346
12/09/2019 2:00 11.6 73 0.0 0 0.0 2.8 10.1 347
12/09/2019 2:10 11.6 73 0.0 0 0.0 2.5 8.8 343
12/09/2019 2:20 11.4 74 0.0 0 0.0 2.7 9.8 335
12/09/2019 2:30 11.4 74 0.0 0 0.0 2.5 8.9 340
12/09/2019 2:40 11.3 74 0.0 0 0.0 2.3 8.1 339
12/09/2019 2:50 11.3 75 0.0 0 0.0 2.7 9.8 338
12/09/2019 3:00 11.3 75 0.0 0 0.0 3.5 12.7 342
12/09/2019 3:10 11.3 76 0.0 0 0.0 1.9 7.0 337
12/09/2019 3:20 11.2 76 0.0 0 0.0 0.5 1.8 310
12/09/2019 3:30 11.1 77 0.0 0 0.0 1.0 3.6 18
12/09/2019 3:40 11.3 77 0.0 0 0.0 1.3 4.7 357
12/09/2019 3:50 11.3 77 0.0 0 0.0 1.6 5.7 1
12/09/2019 4:00 11.1 78 0.0 0 0.0 2.4 8.7 346
12/09/2019 4:10 11.0 79 0.0 0 0.0 2.0 7.3 359
12/09/2019 4:20 10.8 79 0.0 0 0.0 2.7 9.6 334
12/09/2019 4:30 11.0 79 0.0 0 0.0 2.0 7.2 329
12/09/2019 4:40 11.0 78 0.0 0 0.0 1.3 4.6 324
12/09/2019 4:50 10.9 78 0.0 0 0.0 0.7 2.4 345
12/09/2019 5:00 10.7 79 0.0 0 0.0 1.1 3.9 331
12/09/2019 5:10 10.5 80 0.0 0 0.0 1.7 6.0 333
12/09/2019 5:20 10.4 81 0.0 0 0.0 1.0 3.4 338
12/09/2019 5:30 10.5 81 0.0 0 0.0 0.6 2.0 306
12/09/2019 5:40 10.6 81 0.0 0 0.0 0.8 3.0 329
12/09/2019 5:50 10.5 82 8.2 0 0.0 0.7 2.4 349
12/09/2019 6:00 10.6 82 21.0 0 0.0 1.9 6.8 333
12/09/2019 6:10 10.7 82 27.1 0 0.0 2.4 8.6 318
12/09/2019 6:20 10.8 81 37.6 0 0.0 2.2 7.7 322
12/09/2019 6:30 11.1 80 94.8 592 0.0 1.8 6.6 336
12/09/2019 6:40 11.4 79 124.6 600 0.0 1.5 5.5 335
12/09/2019 6:50 11.6 78 153.5 600 0.0 1.5 5.4 1
12/09/2019 7:00 12.0 76 183.6 600 0.0 1.5 5.4 353
12/09/2019 7:10 12.3 75 213.7 600 0.0 1.1 4.1 11
12/09/2019 7:20 12.9 72 245.8 600 0.0 2.2 7.9 3
12/09/2019 7:30 13.5 69 278.4 600 0.0 2.6 9.3 8
12/09/2019 7:40 14.1 67 310.1 600 0.0 2.2 8.0 2
12/09/2019 7:50 14.8 65 341.5 600 0.0 2.1 7.4 15
12/09/2019 8:00 15.6 62 372.2 600 0.0 1.6 5.9 24
12/09/2019 8:10 16.0 61 403.5 600 0.0 0.9 3.1 29
12/09/2019 8:20 16.9 59 421.2 600 0.0 0.7 2.4 11
12/09/2019 8:30 17.1 58 453.6 600 0.0 0.4 1.3 343
12/09/2019 8:40 17.8 57 461.9 600 0.0 0.5 1.7 170
12/09/2019 8:50 17.8 57 516.0 600 0.0 1.0 3.6 137
12/09/2019 9:00 18.6 55 551.5 600 0.0 0.7 2.5 141
12/09/2019 9:10 18.4 55 574.6 600 0.0 1.9 6.8 163
12/09/2019 9:20 18.1 55 598.1 600 0.0 1.8 6.6 167
12/09/2019 9:30 18.7 54 617.5 600 0.0 1.1 4.0 164
12/09/2019 9:40 19.6 51 645.6 600 0.0 0.7 2.4 160
12/09/2019 9:50 19.9 50 666.9 600 0.0 1.3 4.5 168
12/09/2019 10:00 20.3 49 688.0 600 0.0 0.9 3.4 166
12/09/2019 10:10 20.3 49 703.9 600 0.0 0.8 2.7 166
12/09/2019 10:20 20.6 48 726.1 600 0.0 0.6 2.3 227
12/09/2019 10:30 21.8 45 738.8 600 0.0 1.1 4.0 173
12/09/2019 10:40 22.5 44 749.3 600 0.0 1.1 3.9 154
12/09/2019 10:50 23.4 42 749.3 598 0.0 1.2 4.4 144
12/09/2019 11:00 23.8 39 765.6 600 0.0 1.6 5.6 141
12/09/2019 11:10 23.7 37 776.3 600 0.0 1.0 3.7 131
12/09/2019 11:20 24.1 37 785.9 600 0.0 1.7 6.0 177
12/09/2019 11:30 23.8 38 793.9 600 0.0 1.7 6.2 192
12/09/2019 11:40 24.0 37 799.1 600 0.0 1.7 6.0 232
12/09/2019 11:50 24.4 36 803.0 600 0.0 1.3 4.8 205
12/09/2019 12:00 24.7 34 803.0 600 0.0 0.9 3.3 241
12/09/2019 12:10 24.4 34 805.0 600 0.0 1.5 5.4 253
12/09/2019 12:20 24.9 34 805.0 600 0.0 1.0 3.4 181
12/09/2019 12:30 25.1 33 804.0 600 0.0 0.9 3.3 66
12/09/2019 12:40 25.4 33 801.0 600 0.0 1.2 4.4 172
12/09/2019 12:50 26.2 32 794.4 600 0.0 1.2 4.4 136
12/09/2019 13:00 26.2 31 787.4 600 0.0 1.7 6.2 166
12/09/2019 13:10 26.1 32 776.6 600 0.0 1.9 6.9 140
12/09/2019 13:20 26.3 31 767.1 600 0.0 1.5 5.4 139
12/09/2019 13:30 26.0 29 756.2 600 0.0 1.7 6.1 173
12/09/2019 13:40 26.0 29 744.7 600 0.0 0.8 3.0 146
12/09/2019 13:50 26.6 29 729.1 600 0.0 1.1 3.9 82
12/09/2019 14:00 27.7 28 714.3 600 0.0 2.0 7.1 107
12/09/2019 14:10 27.2 28 696.1 600 0.0 1.2 4.2 178
12/09/2019 14:20 27.0 29 676.0 600 0.0 1.5 5.3 337
12/09/2019 14:30 26.9 31 651.1 600 0.0 2.0 7.1 339
12/09/2019 14:40 27.0 31 624.9 600 0.0 2.1 7.6 358
12/09/2019 14:50 27.0 31 603.3 600 0.0 2.1 7.6 349
12/09/2019 15:00 27.1 31 577.1 600 0.0 3.0 10.8 356
12/09/2019 15:10 27.1 31 551.1 600 0.0 1.9 7.0 349
12/09/2019 15:20 27.5 31 524.1 600 0.0 1.7 6.0 7
12/09/2019 15:30 27.2 32 497.5 600 0.0 2.8 10.2 355
12/09/2019 15:40 27.0 33 467.8 600 0.0 2.4 8.6 4
12/09/2019 15:50 26.3 37 440.0 600 0.0 3.6 12.8 356
12/09/2019 16:00 25.3 40 412.0 600 0.0 4.6 16.6 347
12/09/2019 16:10 25.1 41 382.2 600 0.0 3.8 13.5 345
12/09/2019 16:20 25.0 42 351.5 600 0.0 3.9 13.9 349
12/09/2019 16:30 24.6 43 320.1 600 0.0 4.4 15.7 344
12/09/2019 16:40 24.3 43 289.0 600 0.0 3.9 13.9 349
12/09/2019 16:50 24.1 44 257.5 600 0.0 3.5 12.5 347
12/09/2019 17:00 23.7 45 225.0 600 0.0 3.5 12.6 347
12/09/2019 17:10 23.4 46 191.9 600 0.0 4.0 14.2 344
12/09/2019 17:20 23.1 47 161.1 600 0.0 3.1 11.1 355
12/09/2019 17:30 22.7 48 131.8 600 0.0 2.8 10.0 351
12/09/2019 17:40 22.2 49 105.0 600 0.0 3.3 11.8 360
12/09/2019 17:50 21.7 51 79.4 600 0.0 3.2 11.4 351
12/09/2019 18:00 21.2 52 54.6 590 0.0 3.0 10.6 354
12/09/2019 18:10 20.7 54 23.4 0 0.0 3.2 11.7 2
12/09/2019 18:20 20.3 55 17.6 0 0.0 3.6 12.8 3
12/09/2019 18:30 19.9 56 0.1 0 0.0 3.2 11.6 358
12/09/2019 18:40 19.6 57 0.0 0 0.0 2.9 10.4 360
12/09/2019 18:50 19.4 58 0.0 0 0.0 3.1 11.2 358
12/09/2019 19:00 19.0 60 0.0 0 0.0 2.7 9.8 354
12/09/2019 19:10 18.7 61 0.0 0 0.0 2.5 9.1 344
12/09/2019 19:20 18.4 62 0.0 0 0.0 1.9 6.9 342
12/09/2019 19:30 18.2 63 0.0 0 0.0 3.0 10.7 341
12/09/2019 19:40 18.0 64 0.0 0 0.0 2.8 10.0 338
12/09/2019 19:50 17.8 64 0.0 0 0.0 2.9 10.4 331
12/09/2019 20:00 17.5 64 0.0 0 0.0 2.7 9.6 338
12/09/2019 20:10 17.5 64 0.0 0 0.0 2.8 10.2 352
12/09/2019 20:20 17.3 65 0.0 0 0.0 3.3 11.7 348
12/09/2019 20:30 17.3 66 0.0 0 0.0 3.7 13.1 349
12/09/2019 20:40 17.3 66 0.0 0 0.0 4.2 15.0 346
12/09/2019 20:50 17.2 66 0.0 0 0.0 3.6 12.8 337
12/09/2019 21:00 17.0 67 0.0 0 0.0 3.2 11.4 337
12/09/2019 21:10 16.7 68 0.0 0 0.0 2.5 9.0 341
12/09/2019 21:20 16.7 68 0.0 0 0.0 1.8 6.3 331
12/09/2019 21:30 16.7 68 0.0 0 0.0 1.8 6.4 336
12/09/2019 21:40 16.6 68 0.0 0 0.0 1.3 4.5 332
12/09/2019 21:50 16.6 68 0.0 0 0.0 0.9 3.4 344
12/09/2019 22:00 16.5 68 0.0 0 0.0 1.7 6.2 320
12/09/2019 22:10 16.4 69 0.0 0 0.0 2.1 7.5 325
12/09/2019 22:20 16.3 69 0.0 0 0.0 0.7 2.6 329
12/09/2019 22:30 16.5 68 0.0 0 0.0 1.3 4.5 316
12/09/2019 22:40 16.6 68 0.0 0 0.0 2.8 10.0 348
12/09/2019 22:50 16.4 68 0.0 0 0.0 2.3 8.4 328
12/09/2019 23:00 16.5 67 0.0 0 0.0 2.0 7.2 352
12/09/2019 23:10 16.2 68 0.0 0 0.0 1.6 5.6 350
12/09/2019 23:20 16.0 69 0.0 0 0.0 1.4 4.9 348
12/09/2019 23:30 16.2 68 0.0 0 0.0 1.4 4.9 343
12/09/2019 23:40 15.8 70 0.0 0 0.0 1.4 5.2 345
12/09/2019 23:50 15.6 70 0.0 0 0.0 1.2 4.4 342
Anterior Página 1 de 1 Siguiente

NOTA: Tipo de datos según el color:
   - Valores diarios o 10 minutos correctos
   - Valores diarios calculados a partir de un número de datos 10 minutos menor que 144 y mayor que 120, o de un número de datos semihorarios menor que 48 y mayor que 40 (caso de las estaciones de Riegos de Navarra y del MARM)
   - Valores diez minutos estimados


Contacto        Enlaces        Aviso legal